Time;durP1;ratioP1;P1;durP2;ratioP2;P2;SDS_P1;SDS_P2;PMS_P1;PMS_P2;Temp;Humidity;BMP_temperature;BMP_pressure;BME280_temperature;BME280_humidity;BME280_pressure;Samples;Min_cycle;Max_cycle;Signal;HPM_P1;HPM_P2
2023/06/11 00:01:41;;;;;;;6.73;6.17;;;28.50;56.90;;;;;;5072335;28;20555;-66
2023/06/11 00:04:12;;;;;;;6.60;6.10;;;28.50;56.90;;;;;;5069071;28;20867;-67
2023/06/11 00:06:41;;;;;;;6.27;5.83;;;28.50;57.00;;;;;;5071467;28;20467;-66
2023/06/11 00:09:09;;;;;;;7.10;6.60;;;28.50;57.00;;;;;;5068245;28;20508;-66
2023/06/11 00:11:41;;;;;;;7.20;6.60;;;28.50;56.90;;;;;;5071906;28;20523;-66
2023/06/11 00:14:11;;;;;;;5.97;5.57;;;28.50;57.00;;;;;;5069796;28;20447;-66
2023/06/11 00:16:40;;;;;;;6.87;6.37;;;28.50;57.00;;;;;;5072637;28;20439;-65
2023/06/11 00:19:09;;;;;;;6.23;5.73;;;28.50;57.10;;;;;;5070645;28;20446;-66
2023/06/11 00:21:40;;;;;;;6.40;5.90;;;28.40;57.00;;;;;;5072898;28;20471;-66
2023/06/11 00:24:09;;;;;;;6.30;5.80;;;28.40;57.10;;;;;;5063601;28;20537;-66
2023/06/11 00:26:40;;;;;;;5.27;4.97;;;28.50;57.10;;;;;;5059352;28;21005;-65
2023/06/11 00:29:08;;;;;;;7.67;7.00;;;28.50;57.00;;;;;;5060101;28;21273;-65
2023/06/11 00:31:37;;;;;;;7.50;6.87;;;28.50;57.00;;;;;;5064237;28;20453;-66
2023/06/11 00:34:05;;;;;;;7.00;6.50;;;28.50;57.00;;;;;;5058759;28;20966;-66
2023/06/11 00:36:35;;;;;;;5.90;5.50;;;28.50;57.00;;;;;;5094812;28;20458;-66
2023/06/11 00:39:05;;;;;;;6.80;6.30;;;28.50;57.00;;;;;;5069314;28;20460;-66
2023/06/11 00:41:34;;;;;;;7.30;6.70;;;28.50;57.10;;;;;;5068486;28;20826;-67
2023/06/11 00:44:05;;;;;;;6.77;6.27;;;28.50;57.10;;;;;;5067388;28;20462;-66
2023/06/11 00:46:37;;;;;;;5.97;5.57;;;28.40;57.10;;;;;;5065874;28;21059;-66
2023/06/11 00:49:05;;;;;;;7.27;6.67;;;28.50;57.00;;;;;;5066838;28;20983;-66
2023/06/11 00:51:34;;;;;;;7.20;6.47;;;28.40;57.10;;;;;;5068627;28;20448;-66
2023/06/11 00:54:02;;;;;;;7.83;7.23;;;28.40;57.10;;;;;;5068154;28;20470;-67
2023/06/11 00:56:30;;;;;;;6.50;6.10;;;28.40;57.20;;;;;;5067751;28;20453;-67
2023/06/11 00:59:00;;;;;;;6.80;6.30;;;28.40;57.20;;;;;;5066251;28;20469;-66
2023/06/11 01:01:35;;;;;;;7.30;6.80;;;28.40;57.30;;;;;;5068200;28;20461;-66
2023/06/11 01:04:07;;;;;;;7.10;6.50;;;28.30;57.40;;;;;;5068636;28;20453;-66
2023/06/11 01:06:37;;;;;;;6.40;5.90;;;28.30;57.40;;;;;;5070351;28;20472;-66
2023/06/11 01:09:08;;;;;;;7.27;6.80;;;28.30;57.40;;;;;;5068404;28;20465;-65
2023/06/11 01:11:38;;;;;;;6.50;6.00;;;28.30;57.40;;;;;;5069053;28;20552;-66
2023/06/11 01:14:13;;;;;;;6.27;5.87;;;28.30;57.50;;;;;;5067174;28;20877;-65
2023/06/11 01:16:47;;;;;;;7.10;6.60;;;28.30;57.50;;;;;;5067060;28;21116;-66
2023/06/11 01:19:32;;;;;;;7.40;6.80;;;28.20;57.60;;;;;;5068145;28;20538;-65
2023/06/11 01:22:08;;;;;;;7.00;6.43;;;28.20;57.50;;;;;;5067950;28;20552;-65
2023/06/11 01:24:57;;;;;;;6.17;5.77;;;28.20;57.60;;;;;;5064837;28;20463;-67
2023/06/11 01:27:42;;;;;;;6.87;6.27;;;28.20;57.60;;;;;;5065060;28;20478;-66
2023/06/11 01:30:17;;;;;;;6.20;5.80;;;28.20;57.60;;;;;;5067771;28;20459;-66
2023/06/11 01:32:52;;;;;;;5.50;5.20;;;28.20;57.60;;;;;;5066633;28;20510;-66
2023/06/11 01:35:24;;;;;;;6.53;6.03;;;28.20;57.60;;;;;;5083680;28;20484;-66
2023/06/11 01:37:56;;;;;;;5.70;5.30;;;28.10;57.60;;;;;;5067263;28;20475;-66
2023/06/11 01:40:32;;;;;;;5.80;5.40;;;28.10;57.60;;;;;;5067762;28;20514;-67
2023/06/11 01:43:02;;;;;;;5.40;5.00;;;28.10;57.60;;;;;;5067309;28;20463;-67
2023/06/11 01:45:34;;;;;;;6.03;5.63;;;28.10;57.60;;;;;;5066960;28;20471;-66
2023/06/11 01:48:02;;;;;;;6.00;5.57;;;28.10;57.50;;;;;;5065831;28;20473;-66
2023/06/11 01:50:32;;;;;;;5.70;5.30;;;28.10;57.60;;;;;;5098661;28;20470;-66
2023/06/11 01:53:01;;;;;;;5.63;5.27;;;28.10;57.60;;;;;;5069089;28;20445;-66
2023/06/11 01:55:29;;;;;;;5.83;5.47;;;28.10;57.50;;;;;;5066643;28;20573;-66
2023/06/11 01:57:58;;;;;;;5.13;4.73;;;28.10;57.50;;;;;;5067582;28;20463;-66
2023/06/11 02:00:26;;;;;;;5.60;5.17;;;28.10;57.50;;;;;;5067717;28;20493;-66
2023/06/11 02:02:56;;;;;;;5.43;4.93;;;28.10;57.50;;;;;;5067867;28;20474;-66
2023/06/11 02:05:24;;;;;;;5.17;4.87;;;28.10;57.50;;;;;;5068590;28;20936;-66
2023/06/11 02:07:53;;;;;;;5.50;5.10;;;28.10;57.50;;;;;;5068777;28;20479;-66
2023/06/11 02:10:22;;;;;;;5.47;5.10;;;28.10;57.50;;;;;;5066991;28;20453;-66
2023/06/11 02:12:50;;;;;;;5.17;4.87;;;28.10;57.50;;;;;;5066887;28;20465;-66
2023/06/11 02:15:19;;;;;;;5.07;4.70;;;28.10;57.50;;;;;;5067247;28;20473;-66
2023/06/11 02:17:48;;;;;;;5.30;4.90;;;28.00;57.40;;;;;;5067471;28;20495;-67
2023/06/11 02:20:17;;;;;;;5.70;5.10;;;28.00;57.40;;;;;;5068891;28;20983;-66
2023/06/11 02:22:46;;;;;;;5.20;4.90;;;28.00;57.40;;;;;;5069243;28;20494;-66
2023/06/11 02:25:15;;;;;;;5.60;5.20;;;28.00;57.40;;;;;;5068578;28;20455;-66
2023/06/11 02:27:44;;;;;;;4.83;4.53;;;28.00;57.40;;;;;;5066866;28;20828;-65
2023/06/11 02:30:13;;;;;;;5.17;4.87;;;28.00;57.40;;;;;;5067097;28;20494;-65
2023/06/11 02:32:41;;;;;;;5.17;4.87;;;28.00;57.40;;;;;;5067227;28;20460;-66
2023/06/11 02:35:10;;;;;;;5.37;4.97;;;28.00;57.40;;;;;;5067852;28;20506;-66
2023/06/11 02:37:40;;;;;;;6.00;5.60;;;28.00;57.40;;;;;;5069578;28;20459;-66
2023/06/11 02:40:10;;;;;;;5.40;4.90;;;28.00;57.40;;;;;;5066078;28;20550;-65
2023/06/11 02:42:38;;;;;;;5.60;5.00;;;28.00;57.30;;;;;;5069597;28;20479;-65
2023/06/11 02:45:07;;;;;;;4.90;4.60;;;28.00;57.30;;;;;;5068183;28;20452;-65
2023/06/11 02:47:35;;;;;;;5.20;4.90;;;27.90;57.30;;;;;;5067238;28;20478;-66
2023/06/11 02:50:04;;;;;;;5.57;5.17;;;27.90;57.30;;;;;;5069564;28;20453;-66
2023/06/11 02:52:32;;;;;;;5.07;4.67;;;27.90;57.30;;;;;;5067808;28;20460;-66
2023/06/11 02:55:02;;;;;;;5.53;5.13;;;27.90;57.30;;;;;;5068987;28;20459;-67
2023/06/11 02:57:30;;;;;;;5.33;5.00;;;27.90;57.30;;;;;;5068579;28;20471;-66
2023/06/11 02:59:59;;;;;;;5.33;4.93;;;27.90;57.30;;;;;;5067221;28;20450;-66
2023/06/11 03:02:27;;;;;;;5.47;5.07;;;27.90;57.30;;;;;;5068770;28;20462;-65
2023/06/11 03:04:55;;;;;;;4.80;4.47;;;27.90;57.30;;;;;;5067931;28;20452;-66
2023/06/11 03:07:24;;;;;;;4.73;4.43;;;27.90;57.30;;;;;;5067889;28;20895;-66
2023/06/11 03:09:52;;;;;;;5.30;4.80;;;27.90;57.20;;;;;;5065941;28;20459;-65
2023/06/11 03:12:21;;;;;;;5.10;4.70;;;27.90;57.30;;;;;;5067710;28;20507;-66
2023/06/11 03:14:50;;;;;;;5.23;4.83;;;27.90;57.20;;;;;;5066857;28;20464;-66
2023/06/11 03:17:18;;;;;;;5.50;5.10;;;27.90;57.20;;;;;;5067154;28;20494;-66
2023/06/11 03:19:47;;;;;;;4.83;4.53;;;27.90;57.20;;;;;;5067865;28;20462;-66
2023/06/11 03:22:16;;;;;;;6.57;6.07;;;27.90;57.20;;;;;;5068192;28;20865;-66
2023/06/11 03:24:44;;;;;;;4.80;4.50;;;27.80;57.20;;;;;;5069086;28;20537;-66
2023/06/11 03:27:31;;;;;;;5.50;5.10;;;27.80;57.20;;;;;;5071328;28;20529;-66
2023/06/11 03:30:00;;;;;;;4.70;4.40;;;27.80;57.20;;;;;;5066598;28;20558;-66
2023/06/11 03:32:30;;;;;;;5.00;4.70;;;27.80;57.20;;;;;;5072465;28;20462;-66
2023/06/11 03:34:59;;;;;;;5.30;4.87;;;27.80;57.20;;;;;;5071358;28;20641;-65
2023/06/11 03:37:27;;;;;;;5.37;4.90;;;27.80;57.20;;;;;;5071413;28;21009;-65
2023/06/11 03:39:59;;;;;;;4.73;4.33;;;27.80;57.20;;;;;;5068983;28;20505;-65
2023/06/11 03:42:28;;;;;;;5.47;5.17;;;27.80;57.10;;;;;;5072724;28;20496;-65
2023/06/11 03:44:58;;;;;;;4.97;4.67;;;27.80;57.20;;;;;;5069808;28;20466;-65
2023/06/11 03:47:27;;;;;;;5.60;5.20;;;27.80;57.20;;;;;;5071292;28;20462;-66
2023/06/11 03:49:56;;;;;;;6.63;6.03;;;27.80;57.20;;;;;;5070293;28;20549;-66
2023/06/11 03:52:24;;;;;;;4.67;4.30;;;27.80;57.20;;;;;;5070238;28;20463;-66
2023/06/11 03:54:53;;;;;;;5.83;5.43;;;27.80;57.20;;;;;;5070733;28;20459;-66
2023/06/11 03:57:21;;;;;;;4.97;4.57;;;27.80;57.20;;;;;;5070841;28;20889;-66
2023/06/11 03:59:51;;;;;;;5.23;4.87;;;27.80;57.20;;;;;;5068743;28;20463;-67
2023/06/11 04:02:20;;;;;;;5.00;4.60;;;27.80;57.20;;;;;;5070312;28;20813;-66
2023/06/11 04:04:50;;;;;;;4.93;4.63;;;27.80;57.20;;;;;;5065875;28;20459;-65
2023/06/11 04:07:20;;;;;;;4.73;4.37;;;27.80;57.20;;;;;;5059635;28;20494;-66
2023/06/11 04:09:48;;;;;;;5.50;5.10;;;27.80;57.20;;;;;;5068427;28;20473;-66
2023/06/11 04:12:16;;;;;;;4.97;4.53;;;27.70;57.30;;;;;;5067180;28;20501;-66
2023/06/11 04:14:45;;;;;;;5.87;5.47;;;27.70;57.20;;;;;;5059161;28;20479;-66
2023/06/11 04:17:13;;;;;;;5.17;4.70;;;27.70;57.20;;;;;;5061400;28;20552;-66
2023/06/11 04:19:43;;;;;;;4.90;4.50;;;27.70;57.30;;;;;;5069057;28;20554;-65
2023/06/11 04:22:11;;;;;;;5.10;4.70;;;27.70;57.30;;;;;;5072140;28;20452;-65
2023/06/11 04:24:40;;;;;;;4.97;4.63;;;27.70;57.30;;;;;;5067648;28;20544;-66
2023/06/11 04:27:11;;;;;;;4.80;4.50;;;27.70;57.30;;;;;;5101579;28;20822;-66
2023/06/11 04:29:40;;;;;;;4.17;3.97;;;27.70;57.30;;;;;;5066486;28;20622;-66
2023/06/11 04:32:09;;;;;;;5.57;5.17;;;27.70;57.30;;;;;;5070365;28;20463;-65
2023/06/11 04:34:38;;;;;;;4.60;4.30;;;27.70;57.30;;;;;;5068387;28;20542;-66
2023/06/11 04:37:09;;;;;;;5.07;4.70;;;27.70;57.30;;;;;;5068246;28;20458;-66
2023/06/11 04:39:40;;;;;;;5.63;5.23;;;27.70;57.30;;;;;;5069199;28;20507;-66
2023/06/11 04:42:08;;;;;;;5.60;5.20;;;27.70;57.40;;;;;;5069493;28;20978;-66
2023/06/11 04:44:38;;;;;;;4.90;4.50;;;27.70;57.40;;;;;;5068029;28;20946;-66
2023/06/11 04:47:08;;;;;;;5.33;4.93;;;27.70;57.40;;;;;;5067150;28;20464;-66
2023/06/11 04:49:40;;;;;;;5.20;4.73;;;27.70;57.40;;;;;;5067405;28;20482;-65
2023/06/11 04:52:11;;;;;;;5.87;5.37;;;27.70;57.40;;;;;;5067208;28;21056;-65
2023/06/11 04:54:41;;;;;;;5.03;4.73;;;27.70;57.50;;;;;;5067418;28;20512;-67
2023/06/11 04:57:10;;;;;;;5.50;5.10;;;27.70;57.50;;;;;;5068869;28;20524;-66
2023/06/11 04:59:38;;;;;;;5.33;4.87;;;27.60;57.50;;;;;;5065367;28;20490;-66
2023/06/11 05:02:06;;;;;;;5.77;5.37;;;27.70;57.50;;;;;;5069476;28;20476;-66
2023/06/11 05:04:37;;;;;;;5.33;5.03;;;27.60;57.50;;;;;;5069285;28;20497;-65
2023/06/11 05:07:07;;;;;;;5.33;4.97;;;27.70;57.60;;;;;;5069572;28;20455;-66
2023/06/11 05:09:39;;;;;;;5.17;4.77;;;27.60;57.60;;;;;;5065785;28;20483;-66
2023/06/11 05:12:11;;;;;;;6.00;5.60;;;27.60;57.60;;;;;;5067663;28;20544;-66
2023/06/11 05:14:39;;;;;;;5.30;5.00;;;27.60;57.60;;;;;;5069150;28;20444;-65
2023/06/11 05:17:07;;;;;;;5.70;5.30;;;27.70;57.60;;;;;;5069530;28;20796;-65
2023/06/11 05:19:36;;;;;;;5.80;5.50;;;27.60;57.70;;;;;;5069656;28;20471;-66
2023/06/11 05:22:06;;;;;;;5.87;5.47;;;27.60;57.70;;;;;;5069848;28;20462;-66
2023/06/11 05:24:34;;;;;;;5.77;5.37;;;27.60;57.70;;;;;;5068723;28;20458;-65
2023/06/11 05:27:06;;;;;;;5.20;4.80;;;27.60;57.70;;;;;;5069697;28;20872;-66
2023/06/11 05:29:37;;;;;;;5.70;5.30;;;27.60;57.70;;;;;;5067363;28;20488;-65
2023/06/11 05:32:08;;;;;;;6.10;5.77;;;27.60;57.70;;;;;;5069439;28;20457;-66
2023/06/11 05:34:39;;;;;;;6.80;6.30;;;27.60;57.80;;;;;;5067319;28;20529;-66
2023/06/11 05:37:11;;;;;;;5.17;4.67;;;27.60;57.80;;;;;;5066090;28;20971;-65
2023/06/11 05:39:40;;;;;;;6.50;6.00;;;27.60;57.80;;;;;;5067858;28;20480;-66
2023/06/11 05:42:10;;;;;;;5.77;5.37;;;27.60;57.80;;;;;;5064893;28;20501;-66
2023/06/11 05:44:40;;;;;;;6.77;6.27;;;27.60;57.80;;;;;;5067097;28;20565;-65
2023/06/11 05:47:09;;;;;;;5.83;5.43;;;27.60;57.80;;;;;;5067812;28;20853;-64
2023/06/11 05:49:38;;;;;;;6.23;5.77;;;27.70;57.80;;;;;;5066855;28;20478;-65
2023/06/11 05:52:06;;;;;;;6.70;6.10;;;27.70;57.80;;;;;;5067326;28;20457;-66
2023/06/11 05:54:35;;;;;;;6.23;5.73;;;27.70;57.90;;;;;;5060362;28;20966;-65
2023/06/11 05:57:03;;;;;;;6.13;5.70;;;27.70;57.90;;;;;;5067451;28;20465;-65
2023/06/11 05:59:34;;;;;;;7.83;5.30;;;27.70;57.90;;;;;;5064177;28;20460;-65
2023/06/11 06:02:02;;;;;;;5.90;5.50;;;27.70;57.90;;;;;;5068019;28;20467;-65
2023/06/11 06:04:31;;;;;;;5.83;5.43;;;27.70;57.90;;;;;;5066589;28;20451;-64
2023/06/11 06:06:59;;;;;;;5.80;5.40;;;27.70;58.00;;;;;;5068747;28;20474;-65
2023/06/11 06:09:28;;;;;;;6.20;5.70;;;27.70;58.00;;;;;;5066909;28;20562;-64
2023/06/11 06:11:57;;;;;;;6.77;6.27;;;27.70;58.00;;;;;;5070000;28;20460;-65
2023/06/11 06:14:25;;;;;;;7.07;6.53;;;27.70;58.00;;;;;;5068992;28;20512;-64
2023/06/11 06:16:56;;;;;;;5.90;5.50;;;27.70;58.00;;;;;;5067627;28;20462;-64
2023/06/11 06:19:29;;;;;;;6.70;6.20;;;27.80;57.90;;;;;;5064032;28;20959;-65
2023/06/11 06:21:57;;;;;;;6.80;6.20;;;27.80;58.00;;;;;;5064151;28;20486;-64
2023/06/11 06:24:26;;;;;;;6.33;5.93;;;27.80;58.00;;;;;;5063672;28;20963;-65
2023/06/11 06:26:58;;;;;;;5.93;5.53;;;27.80;58.00;;;;;;5063874;28;20467;-64
2023/06/11 06:29:32;;;;;;;6.10;5.63;;;27.80;58.00;;;;;;5063768;28;20485;-65
2023/06/11 06:32:02;;;;;;;5.73;5.27;;;27.80;58.00;;;;;;5063085;28;20524;-65
2023/06/11 06:34:31;;;;;;;6.13;5.63;;;27.80;58.00;;;;;;5092302;28;20496;-65
2023/06/11 06:37:00;;;;;;;5.97;5.50;;;27.80;58.00;;;;;;5061843;28;20480;-66
2023/06/11 06:39:29;;;;;;;6.57;6.07;;;27.80;58.10;;;;;;5064732;28;20509;-64
2023/06/11 06:41:58;;;;;;;7.40;6.80;;;27.80;58.10;;;;;;5056535;28;20460;-65
2023/06/11 06:44:38;;;;;;;6.10;5.70;;;27.80;58.20;;;;;;5057725;28;20491;-65
2023/06/11 06:47:08;;;;;;;7.00;6.50;;;27.80;58.20;;;;;;5069333;28;20503;-64
2023/06/11 06:49:38;;;;;;;6.17;5.77;;;27.80;58.20;;;;;;5062816;28;20468;-65
2023/06/11 06:52:09;;;;;;;6.27;5.77;;;27.80;58.20;;;;;;5067650;28;20449;-65
2023/06/11 06:54:37;;;;;;;6.07;5.63;;;27.80;58.20;;;;;;5064655;28;20457;-64
2023/06/11 06:57:09;;;;;;;6.67;6.27;;;27.80;58.20;;;;;;5067774;28;20530;-64
2023/06/11 06:59:38;;;;;;;6.93;6.43;;;27.80;58.10;;;;;;5070059;28;20462;-64
2023/06/11 07:02:07;;;;;;;6.77;6.37;;;27.90;58.10;;;;;;5071017;28;20487;-64
2023/06/11 07:04:38;;;;;;;7.00;6.40;;;27.90;58.20;;;;;;5071900;28;20801;-64
2023/06/11 07:07:06;;;;;;;6.47;5.90;;;27.90;58.10;;;;;;5072331;28;20447;-65
2023/06/11 07:09:35;;;;;;;7.07;6.50;;;27.90;58.10;;;;;;5069620;28;20484;-64
2023/06/11 07:12:04;;;;;;;6.97;6.50;;;27.90;58.10;;;;;;5073633;28;20453;-65
2023/06/11 07:14:32;;;;;;;6.40;5.90;;;27.90;58.10;;;;;;5070950;28;20487;-64
2023/06/11 07:17:01;;;;;;;6.33;5.93;;;27.90;58.20;;;;;;5069975;28;20488;-65
2023/06/11 07:19:31;;;;;;;7.43;6.83;;;27.90;58.20;;;;;;5065821;28;20480;-65
2023/06/11 07:21:59;;;;;;;6.60;6.10;;;27.90;58.20;;;;;;5069245;28;20461;-65
2023/06/11 07:24:28;;;;;;;5.77;5.37;;;27.90;58.20;;;;;;5067400;28;20463;-64
2023/06/11 07:26:56;;;;;;;6.37;5.87;;;27.90;58.20;;;;;;5071571;28;20456;-64
2023/06/11 07:29:25;;;;;;;6.53;6.13;;;27.90;58.10;;;;;;5069604;28;21023;-65
2023/06/11 07:31:54;;;;;;;6.90;6.40;;;27.90;58.10;;;;;;5067645;28;20462;-65
2023/06/11 07:34:22;;;;;;;6.93;6.43;;;27.90;58.10;;;;;;5070156;28;20526;-64
2023/06/11 07:36:52;;;;;;;6.43;6.03;;;27.90;58.10;;;;;;5064948;28;20459;-64
2023/06/11 07:39:21;;;;;;;5.80;5.50;;;27.90;58.00;;;;;;5100840;28;20471;-65
2023/06/11 07:41:49;;;;;;;7.00;6.50;;;27.90;58.00;;;;;;5067074;28;20465;-64
2023/06/11 07:44:18;;;;;;;6.63;6.13;;;27.90;58.00;;;;;;5067371;28;20803;-65
2023/06/11 07:46:47;;;;;;;6.50;5.90;;;27.90;58.00;;;;;;5068778;28;20461;-64
2023/06/11 07:49:15;;;;;;;6.90;6.40;;;27.90;58.00;;;;;;5068530;28;20456;-65
2023/06/11 07:51:45;;;;;;;6.60;6.10;;;27.90;58.00;;;;;;5068845;28;20465;-65
2023/06/11 07:54:16;;;;;;;7.70;7.10;;;27.90;58.00;;;;;;5071270;28;20457;-65
2023/06/11 07:56:46;;;;;;;7.20;6.60;;;27.90;58.10;;;;;;5071737;28;20499;-65
2023/06/11 07:59:15;;;;;;;7.00;6.43;;;27.90;58.10;;;;;;5071297;28;20513;-65
2023/06/11 08:01:43;;;;;;;7.53;7.03;;;27.90;58.10;;;;;;5071004;28;20540;-65
2023/06/11 08:04:12;;;;;;;6.73;6.23;;;27.90;58.00;;;;;;5072097;28;20484;-65
2023/06/11 08:06:40;;;;;;;7.57;6.97;;;27.90;58.10;;;;;;5071122;28;20520;-65
2023/06/11 08:09:09;;;;;;;7.30;6.80;;;27.90;58.10;;;;;;5070080;28;20807;-64
2023/06/11 08:11:41;;;;;;;7.20;6.70;;;27.90;58.00;;;;;;5070567;28;20500;-65
2023/06/11 08:14:09;;;;;;;7.30;6.80;;;27.90;58.00;;;;;;5069927;28;20453;-64
2023/06/11 08:16:38;;;;;;;6.93;6.53;;;27.90;58.00;;;;;;5073086;28;20460;-64
2023/06/11 08:19:07;;;;;;;7.00;6.50;;;27.90;58.00;;;;;;5069794;28;20700;-64
2023/06/11 08:21:35;;;;;;;7.20;6.60;;;27.90;58.00;;;;;;5072047;28;20474;-64
2023/06/11 08:24:05;;;;;;;6.80;6.30;;;27.80;57.90;;;;;;5072368;28;20500;-64
2023/06/11 08:26:33;;;;;;;6.50;6.00;;;27.80;57.90;;;;;;5071727;28;20448;-65
2023/06/11 08:29:03;;;;;;;7.33;6.90;;;27.90;57.90;;;;;;5071205;28;20486;-64
2023/06/11 08:31:32;;;;;;;7.43;6.83;;;27.90;57.90;;;;;;5071670;28;20473;-65
2023/06/11 08:34:00;;;;;;;6.63;6.23;;;27.90;57.90;;;;;;5070684;28;20467;-65
2023/06/11 08:36:28;;;;;;;6.83;6.43;;;27.80;57.90;;;;;;5070594;28;20461;-64
2023/06/11 08:38:57;;;;;;;6.10;5.60;;;27.80;57.90;;;;;;5068791;28;20465;-64
2023/06/11 08:41:25;;;;;;;7.47;6.93;;;27.80;57.90;;;;;;5070104;28;20456;-64
2023/06/11 08:43:53;;;;;;;6.67;6.20;;;27.80;57.90;;;;;;5070441;28;20452;-64
2023/06/11 08:46:23;;;;;;;6.70;6.20;;;27.80;57.80;;;;;;5072735;28;20926;-64
2023/06/11 08:48:58;;;;;;;6.40;5.90;;;27.80;57.80;;;;;;5065365;28;20465;-64
2023/06/11 08:51:28;;;;;;;6.77;6.27;;;27.80;57.80;;;;;;5064016;28;20598;-64
2023/06/11 08:53:57;;;;;;;6.47;6.07;;;27.80;57.70;;;;;;5072032;28;20467;-64
2023/06/11 08:56:27;;;;;;;5.90;5.40;;;27.80;57.70;;;;;;5069760;28;20468;-64
2023/06/11 08:58:56;;;;;;;7.80;7.20;;;27.80;57.70;;;;;;5061079;28;20441;-64
2023/06/11 09:01:25;;;;;;;6.57;6.13;;;27.80;57.70;;;;;;5059290;28;20486;-64
2023/06/11 09:03:54;;;;;;;6.70;6.20;;;27.80;57.60;;;;;;5062816;28;20467;-64
2023/06/11 09:06:22;;;;;;;6.83;6.03;;;27.80;57.60;;;;;;5062982;28;20454;-64
2023/06/11 09:08:59;;;;;;;6.00;5.60;;;27.80;57.60;;;;;;5063418;28;20503;-65
2023/06/11 09:11:33;;;;;;;5.77;5.37;;;27.80;57.60;;;;;;5063589;28;20472;-64
2023/06/11 09:14:01;;;;;;;6.67;6.17;;;27.80;57.70;;;;;;5062798;28;20464;-65
2023/06/11 09:16:39;;;;;;;6.50;5.90;;;27.80;57.60;;;;;;5071370;28;20485;-65
2023/06/11 09:19:09;;;;;;;6.13;5.73;;;27.80;57.70;;;;;;5062577;28;20540;-64
2023/06/11 09:21:38;;;;;;;6.38;5.88;;;27.80;57.70;;;;;;5070522;28;20478;-65
2023/06/11 09:24:08;;;;;;;6.27;5.87;;;27.80;57.80;;;;;;5069130;28;20223;-64
2023/06/11 09:26:36;;;;;;;6.40;6.00;;;27.80;57.90;;;;;;5060596;28;20537;-66
2023/06/11 09:29:05;;;;;;;6.18;5.78;;;27.90;57.90;;;;;;5064183;28;20462;-65
2023/06/11 09:31:35;;;;;;;5.93;5.53;;;27.90;58.00;;;;;;5068559;28;20233;-65
2023/06/11 09:34:06;;;;;;;6.67;6.17;;;27.90;58.00;;;;;;5065759;28;20460;-66
2023/06/11 09:36:35;;;;;;;6.10;5.70;;;27.90;58.00;;;;;;5066056;28;21346;-65
2023/06/11 09:39:04;;;;;;;5.93;5.53;;;27.90;58.10;;;;;;5069313;28;20506;-66
2023/06/11 09:41:33;;;;;;;5.87;5.47;;;27.90;58.20;;;;;;5063674;28;20517;-67
2023/06/11 09:44:01;;;;;;;7.33;6.70;;;27.90;58.30;;;;;;5067830;28;20845;-65
2023/06/11 09:46:30;;;;;;;5.43;5.13;;;27.90;58.30;;;;;;5070132;28;20464;-66
2023/06/11 09:49:00;;;;;;;6.00;5.50;;;27.90;58.20;;;;;;5070103;28;20470;-65
2023/06/11 09:51:29;;;;;;;5.60;5.23;;;27.90;58.10;;;;;;5068796;28;20977;-64
2023/06/11 09:53:58;;;;;;;6.23;5.73;;;27.90;58.00;;;;;;5066561;28;20498;-66
2023/06/11 09:56:26;;;;;;;5.93;5.53;;;27.90;58.10;;;;;;5067366;28;20460;-67
2023/06/11 09:58:56;;;;;;;5.53;5.13;;;28.00;57.90;;;;;;5069131;28;21264;-67
2023/06/11 10:01:25;;;;;;;6.60;6.10;;;27.90;57.90;;;;;;5070192;28;20460;-66
2023/06/11 10:03:54;;;;;;;5.73;5.33;;;27.90;57.90;;;;;;5069979;28;20457;-67
2023/06/11 10:06:27;;;;;;;6.13;5.73;;;27.90;57.80;;;;;;5069929;28;20465;-66
2023/06/11 10:08:59;;;;;;;6.80;5.83;;;27.90;57.80;;;;;;5066539;28;20462;-67
2023/06/11 10:11:30;;;;;;;5.27;4.97;;;27.90;57.80;;;;;;5069809;28;20473;-66
2023/06/11 10:13:59;;;;;;;5.30;4.93;;;27.90;57.70;;;;;;5066627;28;20465;-67
2023/06/11 10:16:29;;;;;;;4.97;4.67;;;27.90;57.70;;;;;;5069580;28;20972;-66
2023/06/11 10:19:06;;;;;;;5.50;5.10;;;27.90;57.70;;;;;;5067488;28;20536;-67
2023/06/11 10:21:41;;;;;;;5.93;5.53;;;27.90;57.70;;;;;;5069471;28;20485;-67
2023/06/11 10:24:20;;;;;;;5.60;5.20;;;27.90;57.70;;;;;;5068413;28;20452;-66
2023/06/11 10:27:04;;;;;;;6.37;5.87;;;27.90;57.60;;;;;;5068846;28;20457;-67
2023/06/11 10:29:38;;;;;;;5.20;4.90;;;27.90;57.60;;;;;;5069214;28;20547;-67
2023/06/11 10:32:17;;;;;;;5.70;5.33;;;27.90;57.60;;;;;;5068809;28;21333;-66
2023/06/11 10:34:48;;;;;;;6.23;5.73;;;27.90;57.60;;;;;;5071828;28;20487;-67
2023/06/11 10:37:27;;;;;;;7.20;6.50;;;27.90;57.60;;;;;;5072455;28;20461;-66
2023/06/11 10:39:56;;;;;;;7.40;6.90;;;27.90;57.60;;;;;;5073560;28;20519;-67
2023/06/11 10:42:25;;;;;;;6.70;6.20;;;27.90;57.60;;;;;;5068681;28;21127;-67
2023/06/11 10:44:58;;;;;;;7.50;7.00;;;27.90;57.60;;;;;;5070645;28;20954;-66
2023/06/11 10:47:28;;;;;;;7.00;6.50;;;27.90;57.60;;;;;;5064411;28;20467;-67
2023/06/11 10:50:08;;;;;;;7.43;6.83;;;27.90;57.60;;;;;;5068602;28;20991;-67
2023/06/11 10:52:49;;;;;;;7.50;6.90;;;27.90;57.60;;;;;;5071992;28;20995;-69
2023/06/11 10:55:20;;;;;;;6.97;6.47;;;27.90;57.60;;;;;;5063021;28;20435;-69
2023/06/11 10:57:51;;;;;;;7.70;7.17;;;27.90;57.60;;;;;;5063177;28;20461;-69
2023/06/11 11:00:20;;;;;;;7.60;7.00;;;27.90;57.60;;;;;;5068922;28;20462;-69
2023/06/11 11:02:50;;;;;;;7.43;6.80;;;27.90;57.50;;;;;;5070826;28;20446;-69
2023/06/11 11:05:20;;;;;;;8.00;7.40;;;27.90;57.50;;;;;;5068422;28;20460;-69
2023/06/11 11:07:50;;;;;;;7.30;6.80;;;27.90;57.60;;;;;;5060453;28;20449;-69
2023/06/11 11:10:19;;;;;;;6.80;6.30;;;27.90;57.50;;;;;;5070453;28;20928;-69
2023/06/11 11:12:49;;;;;;;7.40;6.90;;;27.90;57.60;;;;;;5072317;28;20484;-69
2023/06/11 11:15:18;;;;;;;6.63;6.23;;;27.90;57.60;;;;;;5070844;28;20491;-68
2023/06/11 11:17:47;;;;;;;7.33;6.73;;;27.90;57.60;;;;;;5068106;28;20460;-68
2023/06/11 11:20:19;;;;;;;6.60;6.00;;;27.90;57.50;;;;;;5068872;28;20462;-69
2023/06/11 11:22:55;;;;;;;6.90;6.40;;;27.90;57.50;;;;;;5070121;28;20449;-69
2023/06/11 11:25:27;;;;;;;6.20;5.53;;;27.90;57.50;;;;;;5070444;28;20463;-70
2023/06/11 11:27:56;;;;;;;7.47;6.87;;;27.90;57.60;;;;;;5070796;28;20459;-68
2023/06/11 11:30:28;;;;;;;6.20;5.70;;;27.90;57.50;;;;;;5069850;28;20495;-69
2023/06/11 11:32:57;;;;;;;7.50;6.90;;;27.90;57.50;;;;;;5069268;28;20966;-69
2023/06/11 11:35:28;;;;;;;6.57;6.17;;;27.90;57.60;;;;;;5069881;28;20548;-70
2023/06/11 11:37:59;;;;;;;7.50;6.90;;;27.90;57.50;;;;;;5068511;28;20487;-69
2023/06/11 11:40:29;;;;;;;6.90;6.40;;;27.90;57.60;;;;;;5069796;28;20452;-67
2023/06/11 11:42:59;;;;;;;7.43;6.83;;;27.90;57.60;;;;;;5067372;28;20455;-68
2023/06/11 11:45:32;;;;;;;6.97;6.27;;;27.80;57.50;;;;;;5068271;28;20877;-68
2023/06/11 11:48:02;;;;;;;6.83;6.33;;;27.80;57.40;;;;;;5069832;28;20452;-69
2023/06/11 11:50:33;;;;;;;6.27;5.77;;;27.80;57.40;;;;;;5070336;28;20452;-69
2023/06/11 11:53:06;;;;;;;6.30;5.90;;;27.80;57.50;;;;;;5068633;28;20469;-68
2023/06/11 11:55:37;;;;;;;7.30;6.60;;;27.80;57.30;;;;;;5070239;28;20504;-68
2023/06/11 11:58:26;;;;;;;6.50;6.10;;;27.80;57.20;;;;;;5069289;28;20465;-68
2023/06/11 12:00:57;;;;;;;6.70;6.30;;;27.80;57.20;;;;;;5071823;28;20454;-68
2023/06/11 12:03:27;;;;;;;6.27;5.80;;;27.80;57.20;;;;;;5068092;28;20940;-68
2023/06/11 12:05:59;;;;;;;6.53;6.03;;;27.80;57.00;;;;;;5069721;28;20487;-68
2023/06/11 12:08:31;;;;;;;6.20;5.70;;;27.80;57.10;;;;;;5069107;28;20471;-67
2023/06/11 12:11:01;;;;;;;6.10;5.60;;;27.80;57.00;;;;;;5071028;28;20466;-68
2023/06/11 12:13:30;;;;;;;6.23;5.63;;;27.80;57.00;;;;;;5072000;28;20488;-68
2023/06/11 12:16:00;;;;;;;5.67;5.17;;;27.80;56.90;;;;;;5070255;28;20457;-68
2023/06/11 12:18:33;;;;;;;6.53;5.97;;;27.90;56.80;;;;;;5071690;28;20455;-68
2023/06/11 12:21:02;;;;;;;5.90;5.50;;;27.90;56.80;;;;;;5068404;28;20459;-67
2023/06/11 12:23:33;;;;;;;5.80;5.20;;;27.90;56.70;;;;;;5070644;28;20532;-67
2023/06/11 12:26:02;;;;;;;6.63;6.13;;;27.80;56.80;;;;;;5066202;28;20811;-67
2023/06/11 12:28:32;;;;;;;6.40;5.80;;;27.80;56.70;;;;;;5065944;28;20479;-67
2023/06/11 12:31:01;;;;;;;6.37;5.87;;;27.80;56.60;;;;;;5067118;28;20462;-67
2023/06/11 12:33:29;;;;;;;6.63;6.13;;;27.80;56.50;;;;;;5070105;28;20534;-67
2023/06/11 12:35:58;;;;;;;5.67;5.30;;;27.80;56.40;;;;;;5065678;28;21013;-67
2023/06/11 12:38:26;;;;;;;5.73;5.20;;;27.80;56.30;;;;;;5071498;28;20453;-67
2023/06/11 12:40:57;;;;;;;7.57;5.80;;;27.80;56.30;;;;;;5071385;28;20459;-67
2023/06/11 12:43:26;;;;;;;12.17;5.50;;;27.80;56.00;;;;;;5066204;28;20518;-67
2023/06/11 12:45:55;;;;;;;6.33;5.83;;;27.80;55.80;;;;;;5058165;28;20536;-66
2023/06/11 12:48:24;;;;;;;6.63;6.10;;;27.80;56.00;;;;;;5064135;28;20462;-66
2023/06/11 12:50:53;;;;;;;5.63;5.23;;;27.80;55.70;;;;;;5064521;28;20490;-68
2023/06/11 12:53:22;;;;;;;5.20;4.80;;;27.80;55.80;;;;;;5065389;28;21307;-67
2023/06/11 12:55:51;;;;;;;5.50;5.17;;;27.70;55.70;;;;;;5097424;28;20533;-67
2023/06/11 12:58:22;;;;;;;6.13;5.63;;;27.70;55.50;;;;;;5065975;28;20966;-67
2023/06/11 13:00:51;;;;;;;6.10;5.67;;;27.70;55.50;;;;;;5067696;28;20460;-67
2023/06/11 13:03:20;;;;;;;5.50;5.10;;;27.70;55.60;;;;;;5070398;28;20452;-67